Time;durP1;ratioP1;P1;durP2;ratioP2;P2;SDS_P1;SDS_P2;PMS_P1;PMS_P2;Temp;Humidity;BMP_temperature;BMP_pressure;BME280_temperature;BME280_humidity;BME280_pressure;Samples;Min_cycle;Max_cycle;Signal;HPM_P1;HPM_P2
2021/10/24 00:00:49;;;;;;;;;65.75;54.00;16.10;51.50;;;;;;5095002;28;8884;-55
2021/10/24 00:03:15;;;;;;;;;62.00;52.00;15.90;50.60;;;;;;5095194;28;8764;-54
2021/10/24 00:05:41;;;;;;;;;65.75;54.00;16.00;50.60;;;;;;5094864;28;8812;-52
2021/10/24 00:08:07;;;;;;;;;62.25;52.00;16.10;50.60;;;;;;5076975;28;8752;-54
2021/10/24 00:10:33;;;;;;;;;63.00;53.00;16.00;50.50;;;;;;5094876;28;8763;-55
2021/10/24 00:12:59;;;;;;;;;63.50;53.00;16.00;50.60;;;;;;5094862;28;9298;-50
2021/10/24 00:15:24;;;;;;;;;66.50;54.75;16.10;50.50;;;;;;5094795;28;8898;-54
2021/10/24 00:17:50;;;;;;;;;62.25;51.25;16.00;50.30;;;;;;5094590;28;8795;-54
2021/10/24 00:20:16;;;;;;;;;67.50;55.50;16.10;50.40;;;;;;5094576;28;8767;-55
2021/10/24 00:22:42;;;;;;;;;67.00;56.00;16.10;50.20;;;;;;5094719;28;8768;-55
2021/10/24 00:25:08;;;;;;;;;64.75;54.00;16.10;50.30;;;;;;5094767;28;8773;-56
2021/10/24 00:27:34;;;;;;;;;60.00;50.00;16.10;50.20;;;;;;5094615;28;8773;-49
2021/10/24 00:30:00;;;;;;;;;62.00;52.00;16.00;50.00;;;;;;5094592;28;8748;-55
2021/10/24 00:32:26;;;;;;;;;61.00;50.50;16.10;50.10;;;;;;5094785;28;8774;-50
2021/10/24 00:34:52;;;;;;;;;57.75;48.75;16.00;50.10;;;;;;5094670;28;8803;-54
2021/10/24 00:37:18;;;;;;;;;57.00;48.50;15.90;50.40;;;;;;5094332;28;8816;-54
2021/10/24 00:39:45;;;;;;;;;61.75;51.50;15.90;50.30;;;;;;5094890;28;8759;-53
2021/10/24 00:42:11;;;;;;;;;63.50;51.50;15.90;50.40;;;;;;5076748;28;8774;-54
2021/10/24 00:44:37;;;;;;;;;59.25;50.25;15.80;50.60;;;;;;5094728;28;8767;-54
2021/10/24 00:47:05;;;;;;;;;57.75;49.25;15.70;51.00;;;;;;5094511;28;8780;-53
2021/10/24 00:49:31;;;;;;;;;60.25;50.50;15.70;51.10;;;;;;5094490;28;8760;-53
2021/10/24 00:51:57;;;;;;;;;61.00;51.75;15.70;50.80;;;;;;5094386;28;8786;-53
2021/10/24 00:54:26;;;;;;;;;60.50;50.50;15.70;50.60;;;;;;5098391;28;8882;-53
2021/10/24 00:56:56;;;;;;;;;54.75;46.75;15.70;50.70;;;;;;5098483;28;8884;-53
2021/10/24 00:59:23;;;;;;;;;53.50;45.25;15.70;50.70;;;;;;5098632;28;8772;-53
2021/10/24 01:01:50;;;;;;;;;61.75;51.75;15.60;51.10;;;;;;5098755;28;8903;-53
2021/10/24 01:04:18;;;;;;;;;59.00;49.75;15.50;51.20;;;;;;5098446;28;8760;-52
2021/10/24 01:06:46;;;;;;;;;60.50;50.50;15.60;51.10;;;;;;5098548;28;8799;-54
2021/10/24 01:09:15;;;;;;;;;57.00;48.25;15.50;51.10;;;;;;5098418;28;8772;-50
2021/10/24 01:11:43;;;;;;;;;49.25;42.75;15.50;51.10;;;;;;5098235;28;8752;-54
2021/10/24 01:14:12;;;;;;;;;59.00;50.00;15.50;51.20;;;;;;5098256;28;8791;-49
2021/10/24 01:16:40;;;;;;;;;63.25;51.75;15.50;51.30;;;;;;5098423;28;9459;-52
2021/10/24 01:19:09;;;;;;;;;52.75;45.75;15.40;51.30;;;;;;5098561;28;8756;-52
2021/10/24 01:21:35;;;;;;;;;56.25;48.25;15.30;51.50;;;;;;5097909;28;8782;-54
2021/10/24 01:24:02;;;;;;;;;52.50;44.75;15.20;51.80;;;;;;5098139;28;8782;-53
2021/10/24 01:26:29;;;;;;;;;57.25;48.00;15.10;52.20;;;;;;5097983;28;8768;-53
2021/10/24 01:28:56;;;;;;;;;57.50;48.00;15.20;52.10;;;;;;5098005;28;8825;-52
2021/10/24 01:31:23;;;;;;;;;56.75;48.50;15.20;52.00;;;;;;5097920;28;8732;-54
2021/10/24 01:33:49;;;;;;;;;52.00;44.25;15.10;52.10;;;;;;5098173;28;8829;-52
2021/10/24 01:36:15;;;;;;;;;58.25;49.25;15.10;52.30;;;;;;5097645;28;8950;-53
2021/10/24 01:38:46;;;;;;;;;36.50;35.00;15.10;52.30;;;;;;5097861;28;8879;-53
2021/10/24 01:41:12;;;;;;;;;54.75;46.75;15.20;52.20;;;;;;5097755;28;8775;-54
2021/10/24 01:43:38;;;;;;;;;60.00;49.75;15.10;52.10;;;;;;5097978;28;8771;-54
2021/10/24 01:46:05;;;;;;;;;55.75;47.75;15.00;52.00;;;;;;5097594;28;9688;-54
2021/10/24 01:48:31;;;;;;;;;54.00;46.00;15.00;52.20;;;;;;5095906;28;8779;-53
2021/10/24 01:50:57;;;;;;;;;56.50;48.00;14.90;52.30;;;;;;5097582;28;8852;-53
2021/10/24 01:53:27;;;;;;;;;52.75;45.25;14.80;52.70;;;;;;5097774;28;8784;-51
2021/10/24 01:55:53;;;;;;;;;55.25;47.25;14.70;52.60;;;;;;5097428;28;8886;-53
2021/10/24 01:58:19;;;;;;;;;53.75;45.75;14.80;52.90;;;;;;5097547;28;9488;-54
2021/10/24 02:00:46;;;;;;;;;55.75;47.50;14.90;52.60;;;;;;5097698;28;8760;-53
2021/10/24 02:03:12;;;;;;;;;41.50;38.25;14.90;52.60;;;;;;5097613;28;8748;-52
2021/10/24 02:05:39;;;;;;;;;57.50;48.25;14.70;52.70;;;;;;5096800;28;8784;-52
2021/10/24 02:08:06;;;;;;;;;51.00;44.00;14.70;52.70;;;;;;5097285;28;8871;-53
2021/10/24 02:10:33;;;;;;;;;47.00;41.00;14.70;52.80;;;;;;5097216;28;8874;-52
2021/10/24 02:12:59;;;;;;;;;54.25;46.75;14.70;52.80;;;;;;5097224;28;8756;-54
2021/10/24 02:15:25;;;;;;;;;58.75;49.00;14.70;52.80;;;;;;5097151;28;8767;-51
2021/10/24 02:17:51;;;;;;;;;55.25;47.75;14.70;52.60;;;;;;5096960;28;8884;-53
2021/10/24 02:20:17;;;;;;;;;53.50;45.50;14.80;52.40;;;;;;5096989;28;8767;-52
2021/10/24 02:22:43;;;;;;;;;52.00;44.75;14.70;52.40;;;;;;5096891;28;8764;-56
2021/10/24 02:25:10;;;;;;;;;58.00;49.25;14.80;52.30;;;;;;5097039;28;8768;-52
2021/10/24 02:27:37;;;;;;;;;57.25;49.00;14.80;52.30;;;;;;5096843;28;8763;-54
2021/10/24 02:30:05;;;;;;;;;58.25;49.50;14.80;52.30;;;;;;5097072;28;8751;-54
2021/10/24 02:32:31;;;;;;;;;60.75;51.00;14.80;52.10;;;;;;5096980;28;9397;-51
2021/10/24 02:34:57;;;;;;;;;57.75;49.75;14.70;52.30;;;;;;5096738;28;8763;-52
2021/10/24 02:37:23;;;;;;;;;63.25;53.25;14.70;52.40;;;;;;5096404;28;8839;-53
2021/10/24 02:39:49;;;;;;;;;61.50;51.00;14.70;52.30;;;;;;5096902;28;8860;-54
2021/10/24 02:42:15;;;;;;;;;61.75;51.50;14.70;52.10;;;;;;5096838;28;9413;-53
2021/10/24 02:44:41;;;;;;;;;65.25;55.00;14.70;52.40;;;;;;5078764;28;9410;-54
2021/10/24 02:47:07;;;;;;;;;61.50;51.75;14.70;52.10;;;;;;5096732;28;8897;-51
2021/10/24 02:49:34;;;;;;;;;63.25;53.00;14.70;52.40;;;;;;5096528;28;8848;-54
2021/10/24 02:52:00;;;;;;;;;60.50;50.25;14.60;52.00;;;;;;5096462;28;8780;-50
2021/10/24 02:54:26;;;;;;;;;54.50;46.50;14.60;52.10;;;;;;5096626;28;9473;-53
2021/10/24 02:56:53;;;;;;;;;63.50;53.25;14.60;52.20;;;;;;5096342;28;8787;-51
2021/10/24 02:59:19;;;;;;;;;56.00;48.00;14.60;52.20;;;;;;5096542;28;9530;-54
2021/10/24 03:01:46;;;;;;;;;62.75;52.25;14.50;52.50;;;;;;5096210;28;8851;-54
2021/10/24 03:04:13;;;;;;;;;55.75;47.50;14.50;52.40;;;;;;5096204;28;8836;-54
2021/10/24 03:06:39;;;;;;;;;65.75;54.00;14.60;52.20;;;;;;5096273;28;8816;-54
2021/10/24 03:09:06;;;;;;;;;65.50;55.00;14.50;52.20;;;;;;5096095;28;8748;-49
2021/10/24 03:11:32;;;;;;;;;69.00;57.00;14.50;52.30;;;;;;5096054;28;8878;-54
2021/10/24 03:13:58;;;;;;;;;63.00;52.25;14.50;52.30;;;;;;5095956;28;8848;-51
2021/10/24 03:16:24;;;;;;;;;68.50;56.00;14.50;52.30;;;;;;5094693;28;8799;-50
2021/10/24 03:18:50;;;;;;;;;65.50;55.00;14.50;52.00;;;;;;5096148;28;8844;-54
2021/10/24 03:21:16;;;;;;;;;61.25;50.75;14.40;52.30;;;;;;5095798;28;8748;-54
2021/10/24 03:23:42;;;;;;;;;66.75;56.25;14.30;53.40;;;;;;5096281;28;8862;-49
2021/10/24 03:26:08;;;;;;;;;62.50;52.75;14.30;52.40;;;;;;5095781;28;8776;-52
2021/10/24 03:28:34;;;;;;;;;58.75;49.50;14.30;52.30;;;;;;5095997;28;8783;-49
2021/10/24 03:31:01;;;;;;;;;64.50;54.50;14.30;52.30;;;;;;5095925;28;8783;-53
2021/10/24 03:33:26;;;;;;;;;57.50;49.25;14.30;52.30;;;;;;5078057;28;8866;-54
2021/10/24 03:35:53;;;;;;;;;59.50;50.00;14.20;52.70;;;;;;5095362;28;8975;-54
2021/10/24 03:38:19;;;;;;;;;59.75;50.25;14.20;52.30;;;;;;5076475;28;9454;-54
2021/10/24 03:40:44;;;;;;;;;56.75;48.75;14.00;52.80;;;;;;5080290;28;8786;-51
2021/10/24 03:43:10;;;;;;;;;58.00;49.75;14.10;52.90;;;;;;5083661;28;8809;-55
2021/10/24 03:45:36;;;;;;;;;59.25;50.25;14.10;52.20;;;;;;5075219;28;8793;-55
2021/10/24 03:48:02;;;;;;;;;58.75;50.00;14.00;52.50;;;;;;5075048;28;8872;-53
2021/10/24 03:50:28;;;;;;;;;56.75;49.25;14.00;52.60;;;;;;5074986;28;8943;-49
2021/10/24 03:52:54;;;;;;;;;55.50;47.25;13.90;52.80;;;;;;5075203;28;8773;-54
2021/10/24 03:55:20;;;;;;;;;54.50;47.25;14.00;52.80;;;;;;5074962;28;8781;-53
2021/10/24 03:57:46;;;;;;;;;58.25;50.00;14.00;52.90;;;;;;5074836;28;8801;-53
2021/10/24 04:00:13;;;;;;;;;59.25;50.00;14.00;52.70;;;;;;5074793;28;8831;-53
2021/10/24 04:02:58;;;;;;;;;60.00;51.00;14.00;52.70;;;;;;5074787;28;8777;-52
2021/10/24 04:05:25;;;;;;;;;62.00;53.00;14.00;52.60;;;;;;5074646;28;8766;-54
2021/10/24 04:07:52;;;;;;;;;64.50;54.25;14.10;52.20;;;;;;5074687;28;8780;-53
2021/10/24 04:10:20;;;;;;;;;64.00;53.75;13.90;52.40;;;;;;5074726;28;8804;-53
2021/10/24 04:12:46;;;;;;;;;59.50;50.50;13.80;52.30;;;;;;5074643;28;8769;-50
2021/10/24 04:15:14;;;;;;;;;64.00;52.50;13.80;52.60;;;;;;5074653;28;8782;-52
2021/10/24 04:17:39;;;;;;;;;58.25;49.75;13.90;52.40;;;;;;5074495;28;8814;-52
2021/10/24 04:20:07;;;;;;;;;62.50;52.00;13.90;52.40;;;;;;5074598;28;8789;-52
2021/10/24 04:22:34;;;;;;;;;60.75;51.50;13.90;52.20;;;;;;5074547;28;8788;-54
2021/10/24 04:25:00;;;;;;;;;56.25;47.75;13.70;52.50;;;;;;5081712;28;9456;-52
2021/10/24 04:27:26;;;;;;;;;9.00;9.00;13.70;53.50;;;;;;5083189;28;8904;-52
2021/10/24 04:29:52;;;;;;;;;61.50;51.75;13.80;52.40;;;;;;5074688;28;8750;-54
2021/10/24 04:32:18;;;;;;;;;57.25;49.00;13.80;52.30;;;;;;5074645;28;9446;-51
2021/10/24 04:34:43;;;;;;;;;60.00;51.00;13.80;52.20;;;;;;5078763;28;8772;-53
2021/10/24 04:37:09;;;;;;;;;63.00;52.00;13.90;52.10;;;;;;5084680;28;8840;-49
2021/10/24 04:39:36;;;;;;;;;60.25;51.00;13.90;52.00;;;;;;5081036;28;8854;-52
2021/10/24 04:42:02;;;;;;;;;66.00;53.75;13.90;51.90;;;;;;5081282;28;8791;-53
2021/10/24 04:44:28;;;;;;;;;67.75;56.00;13.80;51.90;;;;;;5081877;28;8874;-52
2021/10/24 04:46:54;;;;;;;;;64.00;53.75;13.80;51.90;;;;;;5074301;28;8766;-49
2021/10/24 04:49:21;;;;;;;;;65.00;53.00;13.70;52.00;;;;;;5074204;28;8916;-47
2021/10/24 04:51:47;;;;;;;;;65.75;55.00;13.60;52.10;;;;;;5074480;28;8765;-48
2021/10/24 04:54:13;;;;;;;;;67.75;56.25;13.60;52.30;;;;;;5074257;28;8792;-51
2021/10/24 04:56:39;;;;;;;;;63.50;54.00;13.50;52.30;;;;;;5074030;28;8810;-50
2021/10/24 04:59:04;;;;;;;;;61.75;52.00;13.30;52.70;;;;;;5056423;28;8797;-50
2021/10/24 05:01:30;;;;;;;;;67.00;56.00;13.40;52.80;;;;;;5074103;28;8762;-48
2021/10/24 05:03:56;;;;;;;;;66.00;54.00;13.40;52.70;;;;;;5074135;28;8793;-54
2021/10/24 05:06:22;;;;;;;;;68.25;56.00;13.50;52.60;;;;;;5074370;28;8794;-53
2021/10/24 05:08:48;;;;;;;;;68.50;57.00;13.20;53.20;;;;;;5074100;28;8762;-50
2021/10/24 05:11:14;;;;;;;;;61.75;51.25;13.30;53.20;;;;;;5074079;28;8762;-53
2021/10/24 05:13:40;;;;;;;;;69.75;57.75;13.40;52.90;;;;;;5056303;28;8782;-53
2021/10/24 05:16:07;;;;;;;;;66.50;55.50;13.40;52.80;;;;;;5073915;28;8764;-53
2021/10/24 05:18:33;;;;;;;;;68.75;56.25;13.50;52.50;;;;;;5073969;28;8843;-52
2021/10/24 05:20:58;;;;;;;;;67.00;56.50;13.50;52.30;;;;;;5074067;28;8765;-51
2021/10/24 05:23:24;;;;;;;;;74.25;60.75;13.60;52.30;;;;;;5074150;28;8770;-49
2021/10/24 05:25:50;;;;;;;;;74.00;61.00;13.60;51.90;;;;;;5073896;28;9431;-53
2021/10/24 05:28:17;;;;;;;;;76.75;63.75;13.60;51.90;;;;;;5073861;28;8780;-52
2021/10/24 05:30:43;;;;;;;;;77.00;64.50;13.50;52.30;;;;;;5073906;28;8865;-48
2021/10/24 05:33:09;;;;;;;;;72.50;59.75;13.60;52.20;;;;;;5073870;28;8758;-52
2021/10/24 05:35:35;;;;;;;;;74.50;61.25;13.60;52.00;;;;;;5073547;28;8841;-53
2021/10/24 05:38:01;;;;;;;;;69.00;56.00;13.50;52.10;;;;;;5073651;28;8919;-53
2021/10/24 05:40:27;;;;;;;;;63.00;53.00;13.40;52.40;;;;;;5075920;28;8784;-51
2021/10/24 05:42:53;;;;;;;;;71.25;57.75;13.50;52.40;;;;;;5077519;28;8778;-54
2021/10/24 05:45:19;;;;;;;;;58.00;49.00;13.50;52.30;;;;;;5077434;28;8918;-53
2021/10/24 05:47:45;;;;;;;;;71.25;58.25;13.50;52.30;;;;;;5077117;28;8892;-55
2021/10/24 05:50:11;;;;;;;;;64.75;54.50;13.50;52.50;;;;;;5077523;28;8785;-53
2021/10/24 05:52:37;;;;;;;;;65.75;55.00;13.60;52.50;;;;;;5077720;28;8765;-56
2021/10/24 05:55:05;;;;;;;;;79.00;66.25;13.60;52.30;;;;;;5077380;28;8794;-55
2021/10/24 05:57:30;;;;;;;;;80.25;68.75;13.60;52.10;;;;;;5077079;28;8786;-51
2021/10/24 05:59:56;;;;;;;;;89.00;78.00;13.60;52.10;;;;;;5077114;28;8799;-52
2021/10/24 06:02:22;;;;;;;;;74.75;62.00;13.60;52.10;;;;;;5077011;28;8777;-54
2021/10/24 06:04:48;;;;;;;;;95.00;91.25;13.60;52.40;;;;;;5077247;28;8884;-51
2021/10/24 06:07:14;;;;;;;;;94.00;92.25;13.70;52.50;;;;;;5077329;28;8798;-51
2021/10/24 06:10:02;;;;;;;;;88.50;82.50;13.70;52.60;;;;;;5076931;28;8797;-50
2021/10/24 06:14:54;;;;;;;;;85.00;77.25;13.50;53.00;;;;;;5076940;28;8758;-52
2021/10/24 06:17:20;;;;;;;;;88.75;80.50;13.60;52.90;;;;;;5076404;28;8805;-52
2021/10/24 06:19:47;;;;;;;;;80.00;68.75;13.70;52.60;;;;;;5076707;28;8766;-52
2021/10/24 06:22:12;;;;;;;;;89.00;82.75;13.80;52.40;;;;;;5076825;28;8782;-50
2021/10/24 06:24:38;;;;;;;;;86.50;76.00;13.90;51.80;;;;;;5083312;28;8932;-52
2021/10/24 06:27:04;;;;;;;;;88.25;83.75;13.90;51.50;;;;;;5092835;28;8806;-52
2021/10/24 06:29:30;;;;;;;;;90.00;87.50;14.00;51.50;;;;;;5080928;28;8888;-51
2021/10/24 06:31:56;;;;;;;;;89.00;85.75;14.00;51.40;;;;;;5083298;28;8768;-56
2021/10/24 06:34:22;;;;;;;;;88.50;84.25;14.00;51.40;;;;;;5085566;28;8812;-56
2021/10/24 06:36:48;;;;;;;;;79.00;66.25;14.00;52.60;;;;;;5083326;28;9549;-54
2021/10/24 06:39:13;;;;;;;;;79.25;67.75;13.90;51.80;;;;;;5084487;28;8774;-56
2021/10/24 06:41:39;;;;;;;;;79.50;67.00;14.00;51.80;;;;;;5096887;28;8792;-55
2021/10/24 06:44:05;;;;;;;;;87.75;79.75;14.00;51.70;;;;;;5096573;28;8780;-56
2021/10/24 06:46:31;;;;;;;;;89.75;83.75;14.10;51.50;;;;;;5096582;28;8802;-57
2021/10/24 06:48:57;;;;;;;;;87.50;81.50;14.10;51.40;;;;;;5089861;28;8774;-54
2021/10/24 06:51:23;;;;;;;;;80.25;68.50;14.10;51.60;;;;;;5089261;28;8874;-55
2021/10/24 06:53:49;;;;;;;;;75.75;62.50;14.20;51.60;;;;;;5081456;28;8774;-56
2021/10/24 06:56:14;;;;;;;;;74.00;61.00;14.30;51.50;;;;;;5081483;28;8772;-56
2021/10/24 06:58:40;;;;;;;;;70.50;58.50;14.30;51.20;;;;;;5089818;28;8825;-56
2021/10/24 07:01:06;;;;;;;;;65.50;55.00;14.30;51.00;;;;;;5082032;28;8817;-56
2021/10/24 07:03:32;;;;;;;;;55.50;47.50;14.40;50.60;;;;;;5087106;28;8799;-56
2021/10/24 07:05:58;;;;;;;;;53.00;45.75;14.30;49.80;;;;;;5084865;28;8806;-56
2021/10/24 07:08:24;;;;;;;;;56.00;47.75;14.30;49.60;;;;;;5076120;28;8788;-57
2021/10/24 07:10:49;;;;;;;;;50.00;43.50;14.30;49.60;;;;;;5075181;28;8770;-55
2021/10/24 07:13:15;;;;;;;;;48.25;42.00;14.40;49.30;;;;;;5083713;28;8800;-55
2021/10/24 07:15:41;;;;;;;;;48.25;41.75;14.40;50.60;;;;;;5084523;28;9509;-57
2021/10/24 07:18:07;;;;;;;;;45.00;39.75;14.50;49.30;;;;;;5075802;28;8923;-56
2021/10/24 07:20:33;;;;;;;;;38.50;37.00;14.60;49.40;;;;;;5077889;28;8790;-55
2021/10/24 07:22:59;;;;;;;;;40.50;37.75;14.50;49.30;;;;;;5085763;28;8775;-57
2021/10/24 07:25:25;;;;;;;;;39.00;36.50;14.60;48.90;;;;;;5087970;28;8787;-58
2021/10/24 07:27:52;;;;;;;;;43.50;38.75;14.70;49.10;;;;;;5077669;28;8888;-58
2021/10/24 07:30:18;;;;;;;;;43.75;38.75;14.80;49.30;;;;;;5075417;28;8758;-60
2021/10/24 07:32:45;;;;;;;;;41.00;38.00;14.90;49.10;;;;;;5075591;28;8797;-57
2021/10/24 07:35:11;;;;;;;;;39.50;37.00;14.90;48.10;;;;;;5075416;28;8766;-56
2021/10/24 07:37:40;;;;;;;;;26.33;26.33;14.80;46.70;;;;;;5075452;28;8818;-57
2021/10/24 07:40:08;;;;;;;;;25.25;25.25;14.80;44.80;;;;;;5074792;28;8780;-58
2021/10/24 07:42:35;;;;;;;;;26.00;26.00;14.80;44.50;;;;;;5075163;28;8761;-59
2021/10/24 07:45:01;;;;;;;;;22.00;22.00;14.70;43.80;;;;;;5075635;28;8838;-59
2021/10/24 07:47:30;;;;;;;;;25.33;25.33;14.70;45.20;;;;;;5092323;28;8790;-58
2021/10/24 07:50:05;;;;;;;;;25.00;25.00;14.80;44.60;;;;;;5082450;28;8767;-61
2021/10/24 07:52:35;;;;;;;;;31.00;31.00;14.90;44.40;;;;;;5084162;28;8770;-56
2021/10/24 07:55:02;;;;;;;;;33.33;32.67;14.90;44.30;;;;;;5081638;28;9485;-57
2021/10/24 07:57:28;;;;;;;;;28.33;28.33;14.90;44.70;;;;;;5087895;28;8802;-63
2021/10/24 07:59:53;;;;;;;;;30.67;30.67;15.00;45.30;;;;;;5095346;28;8740;-55
2021/10/24 08:02:20;;;;;;;;;30.33;30.33;15.10;44.80;;;;;;5074566;28;8813;-55
2021/10/24 08:04:49;;;;;;;;;29.33;29.33;15.20;44.70;;;;;;5074868;28;8896;-56
2021/10/24 08:07:17;;;;;;;;;64.50;54.25;15.30;44.70;;;;;;5074698;28;8798;-55
2021/10/24 08:09:44;;;;;;;;;38.75;36.25;15.40;45.00;;;;;;5074711;28;8872;-55
2021/10/24 08:12:10;;;;;;;;;32.00;32.00;15.50;44.90;;;;;;5074880;28;9495;-55
2021/10/24 08:14:36;;;;;;;;;28.00;28.00;15.50;44.30;;;;;;5074611;28;8769;-55
2021/10/24 08:17:05;;;;;;;;;28.33;28.33;15.60;44.30;;;;;;5074315;28;8808;-55
2021/10/24 08:19:32;;;;;;;;;29.67;29.67;15.60;44.40;;;;;;5056892;28;8839;-55
2021/10/24 08:21:58;;;;;;;;;25.33;25.33;15.60;44.20;;;;;;5074604;28;8847;-57
2021/10/24 08:24:24;;;;;;;;;27.33;27.33;15.70;43.20;;;;;;5074441;28;8786;-56
2021/10/24 08:26:50;;;;;;;;;30.67;30.67;15.70;43.70;;;;;;5074752;28;8782;-55
2021/10/24 08:29:17;;;;;;;;;31.00;31.00;15.80;43.60;;;;;;5074448;28;8788;-56
2021/10/24 08:31:49;;;;;;;;;35.50;34.50;15.80;43.90;;;;;;5074396;28;8851;-56
2021/10/24 08:34:16;;;;;;;;;27.00;27.00;15.90;43.40;;;;;;5056687;28;8801;-57
2021/10/24 08:36:42;;;;;;;;;37.00;35.00;15.90;43.80;;;;;;5073858;28;8927;-56
2021/10/24 08:39:09;;;;;;;;;33.00;33.00;16.00;43.60;;;;;;5074209;28;8893;-56
2021/10/24 08:41:38;;;;;;;;;38.50;35.75;16.00;43.10;;;;;;5074279;28;8784;-58
2021/10/24 08:44:04;;;;;;;;;30.00;30.00;16.00;42.40;;;;;;5074462;28;8813;-58
2021/10/24 08:46:32;;;;;;;;;29.33;29.33;16.10;42.50;;;;;;5074128;28;8778;-58
2021/10/24 08:48:58;;;;;;;;;30.00;30.00;16.20;42.00;;;;;;5074377;28;8857;-58
2021/10/24 08:51:27;;;;;;;;;32.00;32.00;16.20;42.50;;;;;;5074235;28;8782;-58
2021/10/24 08:53:52;;;;;;;;;35.00;33.00;16.20;42.30;;;;;;5074134;28;8774;-58
2021/10/24 08:56:22;;;;;;;;;26.00;26.00;16.30;41.60;;;;;;5074367;28;8754;-59
2021/10/24 08:58:48;;;;;;;;;31.33;31.33;16.30;40.70;;;;;;5074451;28;8774;-58
2021/10/24 09:01:16;;;;;;;;;32.50;32.00;16.30;40.80;;;;;;5074405;28;9425;-59
2021/10/24 09:04:07;;;;;;;;;30.00;29.50;16.30;40.90;;;;;;5074081;28;8892;-58
2021/10/24 09:06:59;;;;;;;;;25.00;25.00;16.30;41.90;;;;;;5074161;28;8797;-58
2021/10/24 09:09:29;;;;;;;;;28.67;27.33;16.30;41.10;;;;;;5074334;28;8789;-58
2021/10/24 09:12:06;;;;;;;;;26.67;26.67;16.40;42.00;;;;;;5076367;28;8793;-55
2021/10/24 09:14:53;;;;;;;;;27.67;27.67;16.40;41.10;;;;;;5085060;28;8890;-52
2021/10/24 09:17:21;;;;;;;;;31.33;30.00;16.50;41.30;;;;;;5083554;28;8841;-59
2021/10/24 09:19:53;;;;;;;;;28.33;28.33;16.60;40.90;;;;;;5093572;28;8770;-54
2021/10/24 09:22:28;;;;;;;;;31.67;31.67;16.70;40.60;;;;;;5080524;28;8793;-56
2021/10/24 09:25:05;;;;;;;;;28.00;27.00;16.60;40.20;;;;;;5089015;28;8768;-59
2021/10/24 09:27:56;;;;;;;;;28.00;27.33;16.70;41.00;;;;;;5096476;28;8806;-55
2021/10/24 09:30:34;;;;;;;;;26.00;26.00;16.80;41.40;;;;;;5081238;28;8773;-57
2021/10/24 09:33:10;;;;;;;;;24.00;24.00;16.80;40.90;;;;;;5077915;28;8812;-58
2021/10/24 09:35:38;;;;;;;;;22.67;22.67;16.90;40.90;;;;;;5077364;28;8790;-58
2021/10/24 09:38:07;;;;;;;;;17.33;17.33;17.00;40.60;;;;;;5077488;28;8806;-59
2021/10/24 09:40:40;;;;;;;;;19.67;19.67;17.00;39.10;;;;;;5077813;28;8750;-59
2021/10/24 09:43:14;;;;;;;;;19.33;19.33;17.10;40.80;;;;;;5085362;28;9449;-56
2021/10/24 09:45:58;;;;;;;;;17.67;17.33;17.20;39.40;;;;;;5080452;28;8916;-60
2021/10/24 09:48:35;;;;;;;;;16.00;16.00;17.30;38.00;;;;;;5077283;28;8762;-61
2021/10/24 09:51:08;;;;;;;;;17.00;17.00;17.40;37.00;;;;;;5076868;28;8770;-58
2021/10/24 09:53:37;;;;;;;;;17.67;17.67;17.40;36.90;;;;;;5077355;28;8774;-58
2021/10/24 09:56:06;;;;;;;;;15.00;15.00;17.60;37.80;;;;;;5077155;28;8766;-57
2021/10/24 09:58:41;;;;;;;;;15.00;15.00;17.80;35.30;;;;;;5077157;28;8802;-58
2021/10/24 10:01:09;;;;;;;;;14.33;14.33;17.80;34.50;;;;;;5076960;28;8876;-58
2021/10/24 10:03:36;;;;;;;;;14.67;14.67;18.00;35.80;;;;;;5077015;28;8831;-57
2021/10/24 10:06:03;;;;;;;;;17.33;17.33;18.30;35.50;;;;;;5077068;28;8904;-58
2021/10/24 10:08:29;;;;;;;;;18.33;18.33;18.60;36.30;;;;;;5076842;28;8816;-59
2021/10/24 10:11:05;;;;;;;;;19.00;19.00;18.90;34.00;;;;;;5077033;28;8804;-59
2021/10/24 10:13:36;;;;;;;;;21.67;21.67;19.10;33.60;;;;;;5076890;28;8758;-59
2021/10/24 10:16:08;;;;;;;;;21.00;21.00;19.40;34.60;;;;;;5076850;28;8782;-59
2021/10/24 10:19:05;;;;;;;;;15.67;15.67;19.80;34.10;;;;;;5077122;28;9522;-59
2021/10/24 10:21:35;;;;;;;;;16.67;16.67;20.00;31.40;;;;;;4995070;28;8786;-59
2021/10/24 10:24:03;;;;;;;;;20.33;18.33;20.30;30.40;;;;;;4995266;28;8796;-58
2021/10/24 10:26:30;;;;;;;;;19.67;19.67;20.80;31.20;;;;;;4994580;28;8782;-57
2021/10/24 10:28:56;;;;;;;;;14.00;14.00;21.50;29.90;;;;;;4995201;28;8789;-56
2021/10/24 10:31:22;;;;;;;;;25.33;25.33;22.60;30.00;;;;;;4995087;28;8832;-58
2021/10/24 10:34:03;;;;;;;;;25.33;25.00;23.50;28.40;;;;;;4995016;28;8786;-57
2021/10/24 10:36:44;;;;;;;;;19.67;19.67;24.60;26.70;;;;;;4994690;28;8834;-58
2021/10/24 10:39:36;;;;;;;;;17.00;17.00;25.50;25.20;;;;;;4995018;28;8798;-56
2021/10/24 10:42:23;;;;;;;;;20.33;20.33;26.40;24.20;;;;;;4991478;28;8801;-59
2021/10/24 10:45:16;;;;;;;;;20.67;20.67;26.90;24.10;;;;;;4994808;28;8857;-58
2021/10/24 10:47:50;;;;;;;;;24.67;24.67;27.80;23.80;;;;;;4994841;28;9502;-58
2021/10/24 10:50:30;;;;;;;;;23.00;23.00;28.40;23.00;;;;;;4994792;28;9452;-57
2021/10/24 10:53:01;;;;;;;;;18.00;18.00;28.80;23.00;;;;;;4994660;28;8789;-68
2021/10/24 10:55:47;;;;;;;;;19.67;19.67;29.10;22.00;;;;;;4994648;28;8779;-59
2021/10/24 10:58:41;;;;;;;;;14.00;14.00;29.40;21.40;;;;;;5046206;28;11543;-61
2021/10/24 11:01:28;;;;;;;;;9.67;9.67;29.60;20.40;;;;;;5075631;28;11429;-56
2021/10/24 11:03:58;;;;;;;;;15.00;15.00;29.50;20.60;;;;;;5075641;28;11379;-58
2021/10/24 11:06:27;;;;;;;;;20.00;20.00;29.60;21.00;;;;;;5075675;28;11478;-57
2021/10/24 11:08:57;;;;;;;;;16.33;16.33;29.70;20.70;;;;;;5076092;28;8766;-58
2021/10/24 11:11:39;;;;;;;;;17.67;17.67;29.70;20.80;;;;;;5075626;28;8774;-57
2021/10/24 11:14:14;;;;;;;;;14.67;14.67;29.70;20.30;;;;;;5075621;28;11562;-61
2021/10/24 11:16:48;;;;;;;;;15.00;15.00;29.70;20.20;;;;;;5075528;28;12172;-57
2021/10/24 11:19:40;;;;;;;;;17.00;17.00;29.70;20.70;;;;;;5075383;28;11452;-59
2021/10/24 11:22:09;;;;;;;;;15.25;15.25;29.60;19.80;;;;;;5082728;28;11451;-58
2021/10/24 11:24:50;;;;;;;;;13.50;13.50;29.80;20.40;;;;;;5093078;28;12090;-57
2021/10/24 11:27:22;;;;;;;;;10.25;10.25;29.70;19.10;;;;;;5092799;28;11407;-56
2021/10/24 11:29:50;;;;;;;;;8.75;8.75;29.70;19.60;;;;;;5095058;28;11429;-58
2021/10/24 11:32:24;;;;;;;;;13.00;13.00;29.80;19.70;;;;;;5095526;28;11395;-72
2021/10/24 11:34:51;;;;;;;;;10.25;10.25;29.90;18.90;;;;;;5095829;28;11473;-57
2021/10/24 11:37:17;;;;;;;;;11.00;10.50;29.90;18.80;;;;;;5094175;28;11503;-58
2021/10/24 11:39:48;;;;;;;;;10.25;10.25;30.10;18.90;;;;;;5095292;28;11551;-57
2021/10/24 11:42:15;;;;;;;;;12.50;12.50;30.10;19.00;;;;;;5095171;28;11579;-57
2021/10/24 11:44:42;;;;;;;;;11.25;11.25;30.30;19.20;;;;;;5095444;28;11457;-58
2021/10/24 11:47:10;;;;;;;;;11.00;11.00;30.60;19.20;;;;;;5095414;28;11411;-59
2021/10/24 11:49:49;;;;;;;;;11.00;11.00;30.70;19.00;;;;;;5095465;28;11418;-58
2021/10/24 11:52:25;;;;;;;;;10.50;10.50;30.90;19.20;;;;;;5095103;28;11399;-58
2021/10/24 11:55:09;;;;;;;;;12.25;12.25;31.10;19.10;;;;;;5095034;28;11553;-58
2021/10/24 12:00:18;;;;;;;;;10.00;10.00;31.40;17.90;;;;;;5095028;28;11491;-58
2021/10/24 12:03:03;;;;;;;;;14.00;14.00;31.60;18.30;;;;;;5095122;28;12090;-56
2021/10/24 12:05:36;;;;;;;;;11.75;11.75;31.50;17.90;;;;;;5095080;28;11513;-59
2021/10/24 12:08:02;;;;;;;;;12.25;12.25;31.60;17.40;;;;;;5094257;28;12085;-58
2021/10/24 12:10:38;;;;;;;;;14.75;14.75;31.60;17.80;;;;;;5094447;28;11507;-57
2021/10/24 12:13:05;;;;;;;;;8.50;8.50;31.70;17.30;;;;;;5094108;28;11401;-57
2021/10/24 12:15:39;;;;;;;;;9.00;9.00;31.90;17.40;;;;;;5074428;28;12082;-57
2021/10/24 12:18:15;;;;;;;;;10.00;10.00;32.00;17.10;;;;;;5074194;28;11452;-57
2021/10/24 12:21:02;;;;;;;;;10.00;10.00;32.20;16.90;;;;;;5074614;28;11575;-58
2021/10/24 12:23:31;;;;;;;;;10.00;10.00;32.20;16.30;;;;;;5074662;28;11432;-59
2021/10/24 12:26:06;;;;;;;;;9.00;9.00;32.20;16.90;;;;;;5074184;28;11526;-58
2021/10/24 12:28:40;;;;;;;;;9.00;9.00;32.30;16.60;;;;;;5074264;28;11434;-58
2021/10/24 12:31:16;;;;;;;;;8.75;8.75;32.40;16.70;;;;;;5074301;28;11451;-58
2021/10/24 12:33:43;;;;;;;;;9.00;9.00;32.50;15.90;;;;;;5074245;28;11411;-58
2021/10/24 12:36:28;;;;;;;;;9.50;9.50;32.60;16.40;;;;;;5074051;28;11431;-51
2021/10/24 12:39:00;;;;;;;;;9.50;9.50;32.40;16.50;;;;;;5074162;28;11449;-56
2021/10/24 12:41:44;;;;;;;;;6.75;6.75;32.50;15.80;;;;;;5074054;28;11401;-54
2021/10/24 12:44:11;;;;;;;;;7.50;7.50;32.60;16.70;;;;;;5074390;28;11509;-54
2021/10/24 12:46:39;;;;;;;;;9.75;9.75;32.90;16.60;;;;;;5056793;28;11406;-53
2021/10/24 12:49:20;;;;;;;;;12.00;12.00;32.90;15.80;;;;;;5073700;28;11405;-53